Terminal Aerodrome Forecast
Issued by NWS

Home | Current Version | Previous Version | Text Only | Print | Product List | Glossary On
Versions: 1 2 3 4 5 6 7 8 9 10 11 12 13 14 15 16 17 18 19 20 21
000
FTUS43 KDMX 232339
TAFMCW
TAF
KMCW 232339Z 2400/2424 04015G26KT P6SM VCSH SCT009 OVC020
      TEMPO 2400/2404 3SM -RASN OVC008
     FM240400 03022G34KT 1 1/2SM -SN OVC007
     FM240900 02022G33KT 1/2SM SN OVC008
     FM241200 01027G38KT 1/4SM +SN BLSN OVC003
     FM242200 36023G34KT 3/4SM -SN BLSN OVC004=

USA.gov is the U.S. government's official web portal to all federal, state and local government web resources and services.